sensor_id;sensor_type;location;lat;lon;timestamp;P1;durP1;ratioP1;P2;durP2;ratioP2
62179;SDS011;48172;53.374;10.722;2022-11-30T00:01:11;33.25;;;26.92;;
62179;SDS011;48172;53.374;10.722;2022-11-30T00:03:39;33.58;;;27.77;;
62179;SDS011;48172;53.374;10.722;2022-11-30T00:06:07;30.80;;;26.00;;
62179;SDS011;48172;53.374;10.722;2022-11-30T00:08:35;30.88;;;25.50;;
62179;SDS011;48172;53.374;10.722;2022-11-30T00:11:12;32.38;;;26.30;;
62179;SDS011;48172;53.374;10.722;2022-11-30T00:13:40;31.75;;;26.52;;
62179;SDS011;48172;53.374;10.722;2022-11-30T00:16:07;31.90;;;27.20;;
62179;SDS011;48172;53.374;10.722;2022-11-30T00:18:34;32.10;;;25.70;;
62179;SDS011;48172;53.374;10.722;2022-11-30T00:21:02;28.77;;;24.25;;
62179;SDS011;48172;53.374;10.722;2022-11-30T00:23:31;31.60;;;26.13;;
62179;SDS011;48172;53.374;10.722;2022-11-30T00:26:01;30.35;;;26.52;;
62179;SDS011;48172;53.374;10.722;2022-11-30T00:28:29;32.55;;;26.35;;
62179;SDS011;48172;53.374;10.722;2022-11-30T00:30:57;31.55;;;25.27;;
62179;SDS011;48172;53.374;10.722;2022-11-30T00:33:30;30.33;;;25.30;;
62179;SDS011;48172;53.374;10.722;2022-11-30T00:35:58;30.35;;;25.25;;
62179;SDS011;48172;53.374;10.722;2022-11-30T00:38:30;30.33;;;24.98;;
62179;SDS011;48172;53.374;10.722;2022-11-30T00:41:03;31.35;;;25.80;;
62179;SDS011;48172;53.374;10.722;2022-11-30T00:43:30;29.60;;;24.40;;
62179;SDS011;48172;53.374;10.722;2022-11-30T00:45:57;29.88;;;23.83;;
62179;SDS011;48172;53.374;10.722;2022-11-30T00:48:24;27.33;;;22.77;;
62179;SDS011;48172;53.374;10.722;2022-11-30T00:50:51;28.60;;;24.10;;
62179;SDS011;48172;53.374;10.722;2022-11-30T00:53:17;28.25;;;24.08;;
62179;SDS011;48172;53.374;10.722;2022-11-30T00:55:44;29.05;;;23.73;;
62179;SDS011;48172;53.374;10.722;2022-11-30T00:58:11;30.73;;;24.98;;
62179;SDS011;48172;53.374;10.722;2022-11-30T01:00:38;27.17;;;22.73;;
62179;SDS011;48172;53.374;10.722;2022-11-30T01:03:05;29.50;;;24.58;;
62179;SDS011;48172;53.374;10.722;2022-11-30T01:05:32;28.30;;;23.42;;
62179;SDS011;48172;53.374;10.722;2022-11-30T01:08:00;29.30;;;24.17;;
62179;SDS011;48172;53.374;10.722;2022-11-30T01:10:27;27.50;;;22.45;;
62179;SDS011;48172;53.374;10.722;2022-11-30T01:12:54;26.65;;;21.90;;
62179;SDS011;48172;53.374;10.722;2022-11-30T01:15:21;28.55;;;22.85;;
62179;SDS011;48172;53.374;10.722;2022-11-30T01:17:48;29.58;;;22.65;;
62179;SDS011;48172;53.374;10.722;2022-11-30T01:20:15;28.52;;;23.02;;
62179;SDS011;48172;53.374;10.722;2022-11-30T01:22:44;27.40;;;22.67;;
62179;SDS011;48172;53.374;10.722;2022-11-30T01:25:11;26.77;;;21.63;;
62179;SDS011;48172;53.374;10.722;2022-11-30T01:27:40;28.48;;;23.45;;
62179;SDS011;48172;53.374;10.722;2022-11-30T01:30:07;24.73;;;20.88;;
62179;SDS011;48172;53.374;10.722;2022-11-30T01:32:34;28.67;;;21.50;;
62179;SDS011;48172;53.374;10.722;2022-11-30T01:35:01;26.45;;;22.15;;
62179;SDS011;48172;53.374;10.722;2022-11-30T01:37:27;26.45;;;21.27;;
62179;SDS011;48172;53.374;10.722;2022-11-30T01:39:55;27.52;;;21.73;;
62179;SDS011;48172;53.374;10.722;2022-11-30T01:42:21;24.77;;;20.48;;
62179;SDS011;48172;53.374;10.722;2022-11-30T01:44:49;26.48;;;21.50;;
62179;SDS011;48172;53.374;10.722;2022-11-30T01:47:17;25.58;;;21.38;;
62179;SDS011;48172;53.374;10.722;2022-11-30T01:50:10;25.60;;;20.48;;
62179;SDS011;48172;53.374;10.722;2022-11-30T01:52:43;27.48;;;21.25;;
62179;SDS011;48172;53.374;10.722;2022-11-30T02:00:21;26.25;;;21.42;;
62179;SDS011;48172;53.374;10.722;2022-11-30T02:05:40;25.05;;;19.88;;
62179;SDS011;48172;53.374;10.722;2022-11-30T02:08:07;24.08;;;19.75;;
62179;SDS011;48172;53.374;10.722;2022-11-30T02:10:37;23.77;;;19.83;;
62179;SDS011;48172;53.374;10.722;2022-11-30T02:13:27;27.35;;;20.67;;
62179;SDS011;48172;53.374;10.722;2022-11-30T02:24:43;28.30;;;20.77;;
62179;SDS011;48172;53.374;10.722;2022-11-30T02:30:20;25.13;;;18.88;;
62179;SDS011;48172;53.374;10.722;2022-11-30T02:32:59;25.05;;;19.92;;
62179;SDS011;48172;53.374;10.722;2022-11-30T02:35:31;24.73;;;19.27;;
62179;SDS011;48172;53.374;10.722;2022-11-30T02:38:03;23.58;;;19.10;;
62179;SDS011;48172;53.374;10.722;2022-11-30T02:40:30;24.95;;;19.85;;
62179;SDS011;48172;53.374;10.722;2022-11-30T02:42:59;23.05;;;18.33;;
62179;SDS011;48172;53.374;10.722;2022-11-30T02:45:33;25.57;;;20.37;;
62179;SDS011;48172;53.374;10.722;2022-11-30T02:48:08;22.98;;;17.55;;
62179;SDS011;48172;53.374;10.722;2022-11-30T02:50:40;24.73;;;18.95;;
62179;SDS011;48172;53.374;10.722;2022-11-30T02:53:20;22.83;;;18.08;;
62179;SDS011;48172;53.374;10.722;2022-11-30T02:55:46;24.65;;;18.98;;
62179;SDS011;48172;53.374;10.722;2022-11-30T02:58:19;23.00;;;18.40;;
62179;SDS011;48172;53.374;10.722;2022-11-30T03:00:48;23.92;;;19.00;;
62179;SDS011;48172;53.374;10.722;2022-11-30T03:03:18;21.67;;;18.65;;
62179;SDS011;48172;53.374;10.722;2022-11-30T03:05:44;25.80;;;19.60;;
62179;SDS011;48172;53.374;10.722;2022-11-30T03:08:11;23.63;;;18.30;;
62179;SDS011;48172;53.374;10.722;2022-11-30T03:10:37;22.23;;;17.42;;
62179;SDS011;48172;53.374;10.722;2022-11-30T03:13:04;21.80;;;17.73;;
62179;SDS011;48172;53.374;10.722;2022-11-30T03:15:30;25.48;;;19.55;;
62179;SDS011;48172;53.374;10.722;2022-11-30T03:18:00;22.25;;;18.13;;
62179;SDS011;48172;53.374;10.722;2022-11-30T03:20:29;23.70;;;18.00;;
62179;SDS011;48172;53.374;10.722;2022-11-30T03:22:59;22.95;;;17.30;;
62179;SDS011;48172;53.374;10.722;2022-11-30T03:25:27;23.98;;;18.08;;
62179;SDS011;48172;53.374;10.722;2022-11-30T03:27:54;24.65;;;18.35;;
62179;SDS011;48172;53.374;10.722;2022-11-30T03:30:20;21.83;;;16.92;;
62179;SDS011;48172;53.374;10.722;2022-11-30T03:32:47;26.42;;;18.67;;
62179;SDS011;48172;53.374;10.722;2022-11-30T03:35:13;22.95;;;17.67;;
62179;SDS011;48172;53.374;10.722;2022-11-30T03:37:40;22.40;;;17.73;;
62179;SDS011;48172;53.374;10.722;2022-11-30T03:40:07;22.65;;;17.95;;
62179;SDS011;48172;53.374;10.722;2022-11-30T03:42:34;23.92;;;18.45;;
62179;SDS011;48172;53.374;10.722;2022-11-30T03:45:00;21.77;;;16.77;;
62179;SDS011;48172;53.374;10.722;2022-11-30T03:47:27;21.30;;;16.50;;
62179;SDS011;48172;53.374;10.722;2022-11-30T03:49:53;23.63;;;17.45;;
62179;SDS011;48172;53.374;10.722;2022-11-30T03:52:19;21.90;;;16.83;;
62179;SDS011;48172;53.374;10.722;2022-11-30T03:54:46;21.48;;;16.60;;
62179;SDS011;48172;53.374;10.722;2022-11-30T03:57:13;22.48;;;18.08;;
62179;SDS011;48172;53.374;10.722;2022-11-30T03:59:39;21.70;;;17.30;;
62179;SDS011;48172;53.374;10.722;2022-11-30T04:02:06;21.67;;;16.30;;
62179;SDS011;48172;53.374;10.722;2022-11-30T04:04:32;20.75;;;15.75;;
62179;SDS011;48172;53.374;10.722;2022-11-30T04:06:59;21.83;;;16.98;;
62179;SDS011;48172;53.374;10.722;2022-11-30T04:09:25;21.92;;;17.00;;
62179;SDS011;48172;53.374;10.722;2022-11-30T04:11:52;22.02;;;16.45;;
62179;SDS011;48172;53.374;10.722;2022-11-30T04:14:19;21.83;;;16.60;;
62179;SDS011;48172;53.374;10.722;2022-11-30T04:16:45;20.17;;;16.35;;
62179;SDS011;48172;53.374;10.722;2022-11-30T04:19:11;21.38;;;16.02;;
62179;SDS011;48172;53.374;10.722;2022-11-30T04:21:38;21.25;;;16.67;;
62179;SDS011;48172;53.374;10.722;2022-11-30T04:24:04;21.48;;;16.90;;
62179;SDS011;48172;53.374;10.722;2022-11-30T04:26:31;20.88;;;16.23;;
62179;SDS011;48172;53.374;10.722;2022-11-30T04:28:58;20.85;;;16.02;;
62179;SDS011;48172;53.374;10.722;2022-11-30T04:31:29;21.88;;;15.05;;
62179;SDS011;48172;53.374;10.722;2022-11-30T04:33:56;23.15;;;16.92;;
62179;SDS011;48172;53.374;10.722;2022-11-30T04:36:22;20.60;;;15.93;;
62179;SDS011;48172;53.374;10.722;2022-11-30T04:38:49;20.35;;;15.88;;
62179;SDS011;48172;53.374;10.722;2022-11-30T04:41:15;22.05;;;16.67;;
62179;SDS011;48172;53.374;10.722;2022-11-30T04:43:42;20.67;;;15.65;;
62179;SDS011;48172;53.374;10.722;2022-11-30T04:46:08;21.67;;;16.30;;
62179;SDS011;48172;53.374;10.722;2022-11-30T04:48:35;23.00;;;15.90;;
62179;SDS011;48172;53.374;10.722;2022-11-30T04:51:03;21.08;;;16.38;;
62179;SDS011;48172;53.374;10.722;2022-11-30T04:53:32;21.30;;;15.57;;
62179;SDS011;48172;53.374;10.722;2022-11-30T04:56:06;18.88;;;15.38;;
62179;SDS011;48172;53.374;10.722;2022-11-30T04:58:33;22.42;;;15.75;;
62179;SDS011;48172;53.374;10.722;2022-11-30T05:01:00;20.23;;;15.45;;
62179;SDS011;48172;53.374;10.722;2022-11-30T05:03:27;19.45;;;14.80;;
62179;SDS011;48172;53.374;10.722;2022-11-30T05:05:53;19.25;;;14.95;;
62179;SDS011;48172;53.374;10.722;2022-11-30T05:08:20;19.27;;;15.15;;
62179;SDS011;48172;53.374;10.722;2022-11-30T05:10:51;19.27;;;15.45;;
62179;SDS011;48172;53.374;10.722;2022-11-30T05:13:19;18.38;;;14.13;;
62179;SDS011;48172;53.374;10.722;2022-11-30T05:15:46;20.73;;;15.23;;
62179;SDS011;48172;53.374;10.722;2022-11-30T05:18:13;20.33;;;15.75;;
62179;SDS011;48172;53.374;10.722;2022-11-30T05:20:40;18.83;;;14.80;;
62179;SDS011;48172;53.374;10.722;2022-11-30T05:23:11;19.80;;;15.10;;
62179;SDS011;48172;53.374;10.722;2022-11-30T05:25:37;19.92;;;14.77;;
62179;SDS011;48172;53.374;10.722;2022-11-30T05:28:04;18.77;;;14.65;;
62179;SDS011;48172;53.374;10.722;2022-11-30T05:30:30;19.05;;;14.57;;
62179;SDS011;48172;53.374;10.722;2022-11-30T05:32:57;19.73;;;14.68;;
62179;SDS011;48172;53.374;10.722;2022-11-30T05:35:23;17.45;;;13.60;;
62179;SDS011;48172;53.374;10.722;2022-11-30T05:37:50;17.83;;;14.15;;
62179;SDS011;48172;53.374;10.722;2022-11-30T05:40:16;20.35;;;15.32;;
62179;SDS011;48172;53.374;10.722;2022-11-30T05:42:43;20.58;;;14.77;;
62179;SDS011;48172;53.374;10.722;2022-11-30T05:45:09;17.63;;;13.88;;
62179;SDS011;48172;53.374;10.722;2022-11-30T05:47:36;20.05;;;14.18;;
62179;SDS011;48172;53.374;10.722;2022-11-30T05:50:03;19.48;;;14.50;;
62179;SDS011;48172;53.374;10.722;2022-11-30T05:52:31;18.33;;;14.60;;
62179;SDS011;48172;53.374;10.722;2022-11-30T05:54:57;18.30;;;13.80;;
62179;SDS011;48172;53.374;10.722;2022-11-30T05:57:24;18.65;;;13.85;;
62179;SDS011;48172;53.374;10.722;2022-11-30T05:59:51;15.48;;;12.98;;
62179;SDS011;48172;53.374;10.722;2022-11-30T06:02:17;20.02;;;14.40;;
62179;SDS011;48172;53.374;10.722;2022-11-30T06:04:50;17.00;;;13.02;;
62179;SDS011;48172;53.374;10.722;2022-11-30T06:07:16;16.70;;;13.10;;
62179;SDS011;48172;53.374;10.722;2022-11-30T06:09:43;18.52;;;13.30;;
62179;SDS011;48172;53.374;10.722;2022-11-30T06:12:09;18.05;;;13.48;;
62179;SDS011;48172;53.374;10.722;2022-11-30T06:14:36;15.32;;;12.63;;
62179;SDS011;48172;53.374;10.722;2022-11-30T06:17:03;16.23;;;12.98;;
62179;SDS011;48172;53.374;10.722;2022-11-30T06:19:30;14.77;;;12.02;;
62179;SDS011;48172;53.374;10.722;2022-11-30T06:21:56;17.33;;;12.98;;
62179;SDS011;48172;53.374;10.722;2022-11-30T06:24:23;17.10;;;12.32;;
62179;SDS011;48172;53.374;10.722;2022-11-30T06:26:49;16.40;;;13.02;;
62179;SDS011;48172;53.374;10.722;2022-11-30T06:29:15;15.13;;;12.25;;
62179;SDS011;48172;53.374;10.722;2022-11-30T06:31:42;16.00;;;12.60;;
62179;SDS011;48172;53.374;10.722;2022-11-30T06:34:08;16.95;;;12.65;;
62179;SDS011;48172;53.374;10.722;2022-11-30T06:36:35;15.27;;;12.40;;
62179;SDS011;48172;53.374;10.722;2022-11-30T06:39:02;15.65;;;12.63;;
62179;SDS011;48172;53.374;10.722;2022-11-30T06:41:29;17.20;;;13.05;;
62179;SDS011;48172;53.374;10.722;2022-11-30T06:43:55;14.85;;;11.88;;
62179;SDS011;48172;53.374;10.722;2022-11-30T06:46:22;15.57;;;11.98;;
62179;SDS011;48172;53.374;10.722;2022-11-30T06:48:49;16.08;;;12.25;;
62179;SDS011;48172;53.374;10.722;2022-11-30T06:51:18;15.60;;;12.18;;
62179;SDS011;48172;53.374;10.722;2022-11-30T06:53:45;17.13;;;12.30;;
62179;SDS011;48172;53.374;10.722;2022-11-30T06:56:12;15.57;;;11.50;;
62179;SDS011;48172;53.374;10.722;2022-11-30T06:58:39;14.93;;;12.25;;
62179;SDS011;48172;53.374;10.722;2022-11-30T07:01:06;16.17;;;13.27;;
62179;SDS011;48172;53.374;10.722;2022-11-30T07:03:35;15.70;;;12.48;;
62179;SDS011;48172;53.374;10.722;2022-11-30T07:06:06;13.98;;;11.10;;
62179;SDS011;48172;53.374;10.722;2022-11-30T07:08:39;15.75;;;12.30;;
62179;SDS011;48172;53.374;10.722;2022-11-30T07:11:08;15.70;;;11.68;;
62179;SDS011;48172;53.374;10.722;2022-11-30T07:13:36;16.92;;;12.13;;
62179;SDS011;48172;53.374;10.722;2022-11-30T07:16:03;16.75;;;12.75;;
62179;SDS011;48172;53.374;10.722;2022-11-30T07:18:33;14.13;;;11.32;;
62179;SDS011;48172;53.374;10.722;2022-11-30T07:21:00;13.43;;;11.32;;
62179;SDS011;48172;53.374;10.722;2022-11-30T07:23:30;14.48;;;11.57;;
62179;SDS011;48172;53.374;10.722;2022-11-30T07:26:22;12.88;;;11.02;;
62179;SDS011;48172;53.374;10.722;2022-11-30T07:28:49;13.65;;;10.77;;
62179;SDS011;48172;53.374;10.722;2022-11-30T07:31:21;13.98;;;10.73;;
62179;SDS011;48172;53.374;10.722;2022-11-30T07:33:49;14.60;;;11.13;;
62179;SDS011;48172;53.374;10.722;2022-11-30T07:36:16;15.82;;;11.73;;
62179;SDS011;48172;53.374;10.722;2022-11-30T07:38:45;13.13;;;11.18;;
62179;SDS011;48172;53.374;10.722;2022-11-30T07:41:12;14.45;;;12.15;;
62179;SDS011;48172;53.374;10.722;2022-11-30T07:43:38;14.73;;;11.40;;
62179;SDS011;48172;53.374;10.722;2022-11-30T07:46:05;13.88;;;11.30;;
62179;SDS011;48172;53.374;10.722;2022-11-30T07:48:33;14.20;;;11.38;;
62179;SDS011;48172;53.374;10.722;2022-11-30T07:51:01;15.63;;;11.50;;
62179;SDS011;48172;53.374;10.722;2022-11-30T07:53:31;13.55;;;11.10;;
62179;SDS011;48172;53.374;10.722;2022-11-30T07:56:01;13.20;;;10.43;;
62179;SDS011;48172;53.374;10.722;2022-11-30T07:58:29;15.73;;;11.73;;
62179;SDS011;48172;53.374;10.722;2022-11-30T08:01:07;13.73;;;11.48;;
62179;SDS011;48172;53.374;10.722;2022-11-30T08:03:38;14.52;;;11.30;;
62179;SDS011;48172;53.374;10.722;2022-11-30T08:06:06;14.93;;;11.52;;
62179;SDS011;48172;53.374;10.722;2022-11-30T08:08:40;14.10;;;11.52;;
62179;SDS011;48172;53.374;10.722;2022-11-30T08:11:09;13.13;;;10.98;;
62179;SDS011;48172;53.374;10.722;2022-11-30T08:13:37;14.45;;;11.27;;
62179;SDS011;48172;53.374;10.722;2022-11-30T08:16:08;14.93;;;11.10;;
62179;SDS011;48172;53.374;10.722;2022-11-30T08:18:42;14.00;;;10.90;;
62179;SDS011;48172;53.374;10.722;2022-11-30T08:21:10;12.73;;;10.93;;
62179;SDS011;48172;53.374;10.722;2022-11-30T08:23:42;14.32;;;11.32;;
62179;SDS011;48172;53.374;10.722;2022-11-30T08:26:14;14.00;;;10.65;;
62179;SDS011;48172;53.374;10.722;2022-11-30T08:28:43;15.02;;;11.85;;
62179;SDS011;48172;53.374;10.722;2022-11-30T08:31:12;14.02;;;11.02;;
62179;SDS011;48172;53.374;10.722;2022-11-30T08:33:44;14.73;;;11.25;;
62179;SDS011;48172;53.374;10.722;2022-11-30T08:36:15;14.05;;;11.00;;
62179;SDS011;48172;53.374;10.722;2022-11-30T08:38:47;14.27;;;11.10;;
62179;SDS011;48172;53.374;10.722;2022-11-30T08:41:15;12.93;;;10.45;;
62179;SDS011;48172;53.374;10.722;2022-11-30T08:43:44;14.18;;;10.93;;
62179;SDS011;48172;53.374;10.722;2022-11-30T08:46:12;14.70;;;11.30;;
62179;SDS011;48172;53.374;10.722;2022-11-30T08:48:59;16.02;;;12.13;;
62179;SDS011;48172;53.374;10.722;2022-11-30T08:51:46;13.77;;;10.80;;
62179;SDS011;48172;53.374;10.722;2022-11-30T08:54:34;14.70;;;10.98;;
62179;SDS011;48172;53.374;10.722;2022-11-30T08:57:00;15.68;;;11.73;;
62179;SDS011;48172;53.374;10.722;2022-11-30T08:59:29;14.25;;;11.35;;
62179;SDS011;48172;53.374;10.722;2022-11-30T09:01:56;15.45;;;11.48;;
62179;SDS011;48172;53.374;10.722;2022-11-30T09:04:23;14.77;;;10.93;;
62179;SDS011;48172;53.374;10.722;2022-11-30T09:06:50;14.52;;;11.13;;
62179;SDS011;48172;53.374;10.722;2022-11-30T09:09:16;14.05;;;11.10;;
62179;SDS011;48172;53.374;10.722;2022-11-30T09:11:42;14.68;;;11.13;;
62179;SDS011;48172;53.374;10.722;2022-11-30T09:14:09;15.70;;;11.70;;
62179;SDS011;48172;53.374;10.722;2022-11-30T09:16:36;14.38;;;11.10;;
62179;SDS011;48172;53.374;10.722;2022-11-30T09:19:02;13.57;;;10.82;;
62179;SDS011;48172;53.374;10.722;2022-11-30T09:21:29;15.43;;;11.45;;
62179;SDS011;48172;53.374;10.722;2022-11-30T09:23:55;14.90;;;11.68;;
62179;SDS011;48172;53.374;10.722;2022-11-30T09:26:22;15.73;;;11.02;;
62179;SDS011;48172;53.374;10.722;2022-11-30T09:28:51;15.18;;;11.00;;
62179;SDS011;48172;53.374;10.722;2022-11-30T09:31:19;13.35;;;10.43;;
62179;SDS011;48172;53.374;10.722;2022-11-30T09:33:47;15.38;;;11.43;;
62179;SDS011;48172;53.374;10.722;2022-11-30T09:36:16;15.18;;;11.77;;
62179;SDS011;48172;53.374;10.722;2022-11-30T09:38:44;13.77;;;11.27;;
62179;SDS011;48172;53.374;10.722;2022-11-30T09:47:09;13.88;;;11.55;;
62179;SDS011;48172;53.374;10.722;2022-11-30T09:49:26;14.45;;;11.75;;
62179;SDS011;48172;53.374;10.722;2022-11-30T09:51:54;15.73;;;12.15;;
62179;SDS011;48172;53.374;10.722;2022-11-30T09:54:27;16.52;;;11.43;;
62179;SDS011;48172;53.374;10.722;2022-11-30T09:57:24;15.00;;;11.55;;
62179;SDS011;48172;53.374;10.722;2022-11-30T10:00:09;17.05;;;11.80;;
62179;SDS011;48172;53.374;10.722;2022-11-30T10:02:40;16.73;;;11.77;;
62179;SDS011;48172;53.374;10.722;2022-11-30T10:05:14;15.68;;;12.35;;
62179;SDS011;48172;53.374;10.722;2022-11-30T10:15:52;15.38;;;11.52;;
62179;SDS011;48172;53.374;10.722;2022-11-30T10:24:01;16.65;;;12.38;;
62179;SDS011;48172;53.374;10.722;2022-11-30T10:26:31;15.95;;;12.18;;
62179;SDS011;48172;53.374;10.722;2022-11-30T10:29:03;16.65;;;12.40;;
62179;SDS011;48172;53.374;10.722;2022-11-30T10:31:53;15.25;;;10.75;;
62179;SDS011;48172;53.374;10.722;2022-11-30T10:34:22;17.25;;;11.25;;
62179;SDS011;48172;53.374;10.722;2022-11-30T10:37:03;17.00;;;11.77;;
62179;SDS011;48172;53.374;10.722;2022-11-30T10:39:46;15.63;;;11.70;;
62179;SDS011;48172;53.374;10.722;2022-11-30T10:42:33;17.23;;;11.82;;
62179;SDS011;48172;53.374;10.722;2022-11-30T10:45:24;15.95;;;11.82;;
62179;SDS011;48172;53.374;10.722;2022-11-30T10:48:27;16.50;;;11.75;;
62179;SDS011;48172;53.374;10.722;2022-11-30T10:51:10;61.65;;;46.85;;
62179;SDS011;48172;53.374;10.722;2022-11-30T10:53:37;160.05;;;117.28;;
62179;SDS011;48172;53.374;10.722;2022-11-30T10:56:08;196.82;;;154.63;;
62179;SDS011;48172;53.374;10.722;2022-11-30T11:01:30;266.08;;;224.80;;
62179;SDS011;48172;53.374;10.722;2022-11-30T11:04:14;288.75;;;241.50;;
62179;SDS011;48172;53.374;10.722;2022-11-30T11:09:33;362.50;;;294.65;;
62179;SDS011;48172;53.374;10.722;2022-11-30T11:12:24;382.98;;;308.13;;
62179;SDS011;48172;53.374;10.722;2022-11-30T11:15:07;352.73;;;289.65;;
62179;SDS011;48172;53.374;10.722;2022-11-30T11:17:45;379.80;;;317.92;;
62179;SDS011;48172;53.374;10.722;2022-11-30T11:20:26;365.10;;;307.33;;
62179;SDS011;48172;53.374;10.722;2022-11-30T11:23:01;364.63;;;306.90;;
62179;SDS011;48172;53.374;10.722;2022-11-30T11:25:35;252.38;;;222.20;;
62179;SDS011;48172;53.374;10.722;2022-11-30T11:28:04;263.60;;;234.48;;
62179;SDS011;48172;53.374;10.722;2022-11-30T11:30:37;243.50;;;208.43;;
62179;SDS011;48172;53.374;10.722;2022-11-30T11:35:40;199.00;;;171.68;;
62179;SDS011;48172;53.374;10.722;2022-11-30T11:41:18;174.73;;;148.88;;
62179;SDS011;48172;53.374;10.722;2022-11-30T11:43:57;172.65;;;147.98;;
62179;SDS011;48172;53.374;10.722;2022-11-30T11:46:54;163.52;;;138.88;;
62179;SDS011;48172;53.374;10.722;2022-11-30T11:49:22;163.75;;;139.63;;
62179;SDS011;48172;53.374;10.722;2022-11-30T11:51:58;158.55;;;136.95;;
62179;SDS011;48172;53.374;10.722;2022-11-30T11:54:34;162.02;;;135.10;;
62179;SDS011;48172;53.374;10.722;2022-11-30T11:57:09;150.02;;;127.35;;
62179;SDS011;48172;53.374;10.722;2022-11-30T11:59:44;151.00;;;126.85;;
62179;SDS011;48172;53.374;10.722;2022-11-30T12:08:40;133.02;;;115.65;;
62179;SDS011;48172;53.374;10.722;2022-11-30T12:10:54;127.97;;;113.13;;
62179;SDS011;48172;53.374;10.722;2022-11-30T12:13:26;129.02;;;112.50;;
62179;SDS011;48172;53.374;10.722;2022-11-30T12:18:45;122.93;;;104.75;;
62179;SDS011;48172;53.374;10.722;2022-11-30T12:24:01;121.22;;;107.13;;
62179;SDS011;48172;53.374;10.722;2022-11-30T12:26:40;114.07;;;101.63;;
62179;SDS011;48172;53.374;10.722;2022-11-30T12:29:31;112.43;;;100.03;;
62179;SDS011;48172;53.374;10.722;2022-11-30T12:42:31;101.88;;;90.80;;
62179;SDS011;48172;53.374;10.722;2022-11-30T12:45:13;101.07;;;88.95;;
62179;SDS011;48172;53.374;10.722;2022-11-30T12:48:05;98.40;;;87.70;;
62179;SDS011;48172;53.374;10.722;2022-11-30T12:56:26;92.80;;;82.63;;
62179;SDS011;48172;53.374;10.722;2022-11-30T13:07:08;89.35;;;78.75;;
62179;SDS011;48172;53.374;10.722;2022-11-30T13:09:48;84.95;;;75.15;;
62179;SDS011;48172;53.374;10.722;2022-11-30T13:12:18;84.80;;;74.65;;
62179;SDS011;48172;53.374;10.722;2022-11-30T13:14:51;81.18;;;72.45;;
62179;SDS011;48172;53.374;10.722;2022-11-30T13:17:24;79.90;;;71.10;;
62179;SDS011;48172;53.374;10.722;2022-11-30T13:22:58;76.97;;;68.55;;
62179;SDS011;48172;53.374;10.722;2022-11-30T13:25:32;78.72;;;68.97;;
62179;SDS011;48172;53.374;10.722;2022-11-30T13:31:27;75.50;;;65.82;;
62179;SDS011;48172;53.374;10.722;2022-11-30T13:34:00;73.63;;;65.65;;
62179;SDS011;48172;53.374;10.722;2022-11-30T13:39:26;73.70;;;65.47;;
62179;SDS011;48172;53.374;10.722;2022-11-30T13:44:41;68.35;;;60.85;;
62179;SDS011;48172;53.374;10.722;2022-11-30T13:47:18;70.90;;;61.88;;
62179;SDS011;48172;53.374;10.722;2022-11-30T13:50:04;67.05;;;59.65;;
62179;SDS011;48172;53.374;10.722;2022-11-30T13:58:07;66.55;;;59.25;;
62179;SDS011;48172;53.374;10.722;2022-11-30T14:06:04;61.45;;;54.65;;
62179;SDS011;48172;53.374;10.722;2022-11-30T14:09:15;63.03;;;53.90;;
62179;SDS011;48172;53.374;10.722;2022-11-30T14:15:27;60.70;;;53.30;;
62179;SDS011;48172;53.374;10.722;2022-11-30T14:20:57;60.50;;;51.85;;
62179;SDS011;48172;53.374;10.722;2022-11-30T14:23:30;55.55;;;49.22;;
62179;SDS011;48172;53.374;10.722;2022-11-30T14:26:15;57.30;;;50.90;;
62179;SDS011;48172;53.374;10.722;2022-11-30T14:31:32;54.80;;;48.50;;
62179;SDS011;48172;53.374;10.722;2022-11-30T14:34:08;54.33;;;48.35;;
62179;SDS011;48172;53.374;10.722;2022-11-30T14:36:42;55.00;;;47.38;;
62179;SDS011;48172;53.374;10.722;2022-11-30T14:39:23;53.40;;;47.55;;
62179;SDS011;48172;53.374;10.722;2022-11-30T14:41:51;52.40;;;46.70;;
62179;SDS011;48172;53.374;10.722;2022-11-30T14:44:18;51.88;;;46.08;;
62179;SDS011;48172;53.374;10.722;2022-11-30T14:46:45;50.38;;;44.05;;
62179;SDS011;48172;53.374;10.722;2022-11-30T14:49:19;51.55;;;45.53;;
62179;SDS011;48172;53.374;10.722;2022-11-30T14:51:47;50.10;;;44.80;;
62179;SDS011;48172;53.374;10.722;2022-11-30T14:54:35;49.33;;;43.00;;
62179;SDS011;48172;53.374;10.722;2022-11-30T14:57:17;48.78;;;43.55;;
62179;SDS011;48172;53.374;10.722;2022-11-30T14:59:50;48.38;;;42.45;;
62179;SDS011;48172;53.374;10.722;2022-11-30T15:02:23;47.92;;;42.25;;
62179;SDS011;48172;53.374;10.722;2022-11-30T15:04:56;46.65;;;40.80;;
62179;SDS011;48172;53.374;10.722;2022-11-30T15:07:24;45.72;;;40.83;;
62179;SDS011;48172;53.374;10.722;2022-11-30T15:10:00;47.08;;;41.13;;
62179;SDS011;48172;53.374;10.722;2022-11-30T15:12:30;44.53;;;39.65;;
62179;SDS011;48172;53.374;10.722;2022-11-30T15:18:25;45.00;;;39.40;;
62179;SDS011;48172;53.374;10.722;2022-11-30T15:20:56;44.97;;;39.28;;
62179;SDS011;48172;53.374;10.722;2022-11-30T15:23:27;45.03;;;39.35;;
62179;SDS011;48172;53.374;10.722;2022-11-30T15:26:01;44.08;;;38.95;;
62179;SDS011;48172;53.374;10.722;2022-11-30T15:28:38;43.33;;;38.03;;
62179;SDS011;48172;53.374;10.722;2022-11-30T15:31:09;44.67;;;37.80;;
62179;SDS011;48172;53.374;10.722;2022-11-30T15:33:41;41.80;;;36.15;;
62179;SDS011;48172;53.374;10.722;2022-11-30T15:36:10;42.75;;;36.45;;
62179;SDS011;48172;53.374;10.722;2022-11-30T15:38:57;42.20;;;36.60;;
62179;SDS011;48172;53.374;10.722;2022-11-30T15:41:25;40.85;;;36.42;;
62179;SDS011;48172;53.374;10.722;2022-11-30T15:43:53;39.28;;;35.03;;
62179;SDS011;48172;53.374;10.722;2022-11-30T15:46:34;38.50;;;34.30;;
62179;SDS011;48172;53.374;10.722;2022-11-30T15:51:38;41.00;;;34.65;;
62179;SDS011;48172;53.374;10.722;2022-11-30T15:54:06;37.67;;;33.63;;
62179;SDS011;48172;53.374;10.722;2022-11-30T15:56:33;40.00;;;34.22;;
62179;SDS011;48172;53.374;10.722;2022-11-30T15:59:01;39.22;;;33.53;;
62179;SDS011;48172;53.374;10.722;2022-11-30T16:01:30;36.00;;;32.05;;
62179;SDS011;48172;53.374;10.722;2022-11-30T16:07:51;38.65;;;32.63;;
62179;SDS011;48172;53.374;10.722;2022-11-30T16:10:23;35.72;;;31.83;;
62179;SDS011;48172;53.374;10.722;2022-11-30T16:12:52;36.05;;;31.80;;
62179;SDS011;48172;53.374;10.722;2022-11-30T16:15:24;36.78;;;31.25;;
62179;SDS011;48172;53.374;10.722;2022-11-30T16:17:53;35.93;;;31.20;;
62179;SDS011;48172;53.374;10.722;2022-11-30T16:20:23;38.72;;;31.95;;
62179;SDS011;48172;53.374;10.722;2022-11-30T16:22:50;35.78;;;31.85;;
62179;SDS011;48172;53.374;10.722;2022-11-30T16:25:17;35.88;;;31.00;;
62179;SDS011;48172;53.374;10.722;2022-11-30T16:27:46;37.10;;;30.50;;
62179;SDS011;48172;53.374;10.722;2022-11-30T16:30:14;31.60;;;28.15;;
62179;SDS011;48172;53.374;10.722;2022-11-30T16:32:43;33.20;;;29.23;;
62179;SDS011;48172;53.374;10.722;2022-11-30T16:35:20;32.45;;;28.95;;